Time;durP1;ratioP1;P1;durP2;ratioP2;P2;SDS_P1;SDS_P2;PMS_P1;PMS_P2;Temp;Humidity;BMP_temperature;BMP_pressure;BME280_temperature;BME280_humidity;BME280_pressure;Samples;Min_cycle;Max_cycle;Signal;HPM_P1;HPM_P2
2022/05/20 00:01:02;;;;;;;3.03;1.60;;;25.90;47.30;;;;;;5138255;27;20064;-41
2022/05/20 00:03:29;;;;;;;2.35;1.60;;;25.90;47.30;;;;;;5138044;27;20019;-41
2022/05/20 00:05:55;;;;;;;2.58;1.60;;;25.80;47.30;;;;;;5137569;27;20011;-43
2022/05/20 00:08:21;;;;;;;3.00;1.55;;;25.80;47.30;;;;;;5138194;27;20033;-41
2022/05/20 00:10:47;;;;;;;1.85;1.40;;;25.80;47.30;;;;;;5136853;27;20404;-44
2022/05/20 00:13:13;;;;;;;2.92;1.45;;;25.90;47.40;;;;;;5138275;27;20019;-40
2022/05/20 00:15:39;;;;;;;2.00;1.40;;;25.80;47.30;;;;;;5138719;27;20015;-40
2022/05/20 00:18:06;;;;;;;2.58;1.50;;;25.90;47.40;;;;;;5138551;27;20034;-41
2022/05/20 00:20:32;;;;;;;2.10;1.50;;;25.90;47.40;;;;;;5137073;27;20102;-40
2022/05/20 00:22:58;;;;;;;2.38;1.50;;;25.80;47.40;;;;;;5137865;27;20022;-41
2022/05/20 00:28:08;;;;;;;2.17;1.60;;;25.90;47.40;;;;;;5138915;27;20052;-42
2022/05/20 00:30:34;;;;;;;1.58;1.27;;;25.80;47.40;;;;;;5138262;27;20090;-41
2022/05/20 00:33:01;;;;;;;3.25;1.90;;;25.80;47.50;;;;;;5137696;27;20031;-44
2022/05/20 00:35:27;;;;;;;2.20;1.40;;;25.80;47.50;;;;;;5137707;27;20068;-40
2022/05/20 00:37:54;;;;;;;1.77;1.45;;;25.80;47.40;;;;;;5137393;27;20042;-40
2022/05/20 00:40:22;;;;;;;2.22;1.50;;;25.80;47.50;;;;;;5136732;27;20094;-41
2022/05/20 00:42:49;;;;;;;2.30;1.70;;;25.80;47.50;;;;;;5136559;27;20084;-41
2022/05/20 00:45:14;;;;;;;2.35;1.70;;;25.80;47.50;;;;;;5136101;27;20011;-41
2022/05/20 00:47:41;;;;;;;2.60;1.67;;;25.80;47.50;;;;;;5136809;27;20063;-41
2022/05/20 00:50:11;;;;;;;3.38;1.50;;;25.80;47.50;;;;;;5136615;27;20031;-42
2022/05/20 00:52:37;;;;;;;3.78;1.60;;;25.80;47.50;;;;;;5138119;27;20037;-42
2022/05/20 00:55:10;;;;;;;2.40;1.77;;;25.80;47.60;;;;;;5138743;27;20027;-41
2022/05/20 00:58:00;;;;;;;2.42;1.60;;;25.80;47.50;;;;;;5137390;27;20050;-45
2022/05/20 01:00:27;;;;;;;3.57;1.73;;;25.80;47.50;;;;;;5138535;27;20007;-43
2022/05/20 01:02:54;;;;;;;2.22;1.80;;;25.80;47.50;;;;;;5139413;27;20240;-44
2022/05/20 01:05:27;;;;;;;2.53;1.60;;;25.80;47.50;;;;;;5138083;27;20011;-41
2022/05/20 01:07:53;;;;;;;2.25;1.63;;;25.70;47.50;;;;;;5136326;27;20023;-42
2022/05/20 01:10:20;;;;;;;4.38;1.80;;;25.70;47.50;;;;;;5135985;27;20033;-41
2022/05/20 01:12:48;;;;;;;3.28;1.77;;;25.80;47.60;;;;;;5135659;27;20011;-43
2022/05/20 01:15:14;;;;;;;1.80;1.58;;;25.80;47.50;;;;;;5135978;27;20034;-41
2022/05/20 01:17:40;;;;;;;2.95;1.90;;;25.70;47.40;;;;;;5136648;27;20027;-41
2022/05/20 01:20:09;;;;;;;3.70;1.90;;;25.70;47.40;;;;;;5137811;27;20046;-44
2022/05/20 01:22:48;;;;;;;2.97;1.70;;;25.80;47.50;;;;;;5136637;27;20066;-41
2022/05/20 01:25:15;;;;;;;3.17;1.57;;;25.70;47.50;;;;;;5136531;27;20074;-41
2022/05/20 01:27:42;;;;;;;2.25;1.60;;;25.70;47.50;;;;;;5136348;28;20260;-41
2022/05/20 01:30:13;;;;;;;3.08;1.60;;;25.70;47.50;;;;;;5136515;27;20039;-40
2022/05/20 01:32:39;;;;;;;2.90;1.85;;;25.70;47.40;;;;;;5138892;27;20026;-42
2022/05/20 01:35:07;;;;;;;3.63;1.98;;;25.70;47.40;;;;;;5140079;27;20027;-41
2022/05/20 01:37:33;;;;;;;2.45;1.73;;;25.70;47.40;;;;;;5138955;27;20019;-41
2022/05/20 01:39:59;;;;;;;2.47;1.80;;;25.70;47.40;;;;;;5139861;27;20018;-40
2022/05/20 01:42:32;;;;;;;2.53;1.70;;;25.70;47.50;;;;;;5140121;27;20011;-40
2022/05/20 01:45:15;;;;;;;2.58;1.70;;;25.70;47.40;;;;;;5140205;27;20026;-41
2022/05/20 01:47:46;;;;;;;2.67;1.80;;;25.70;47.40;;;;;;5140117;27;20038;-41
2022/05/20 01:50:16;;;;;;;2.80;1.58;;;25.70;47.40;;;;;;5139036;27;20019;-40
2022/05/20 01:52:56;;;;;;;2.45;1.63;;;25.70;47.40;;;;;;5139870;27;20037;-41
2022/05/20 01:55:41;;;;;;;3.15;1.67;;;25.70;47.40;;;;;;5121665;27;20050;-41
2022/05/20 01:58:14;;;;;;;2.70;1.70;;;25.70;47.30;;;;;;5122816;27;20019;-42
2022/05/20 02:00:41;;;;;;;2.72;1.85;;;25.70;47.30;;;;;;5140106;27;20011;-41
2022/05/20 02:03:18;;;;;;;3.03;1.80;;;25.70;47.30;;;;;;5121707;27;20031;-42
2022/05/20 02:06:02;;;;;;;3.97;1.83;;;25.70;47.30;;;;;;5139810;27;20044;-41
2022/05/20 02:08:33;;;;;;;1.80;1.40;;;25.70;47.30;;;;;;5121903;27;20004;-41
2022/05/20 02:11:04;;;;;;;2.42;1.83;;;25.70;47.30;;;;;;5138636;27;20008;-43
2022/05/20 02:13:32;;;;;;;2.72;1.70;;;25.60;47.30;;;;;;5140053;27;20035;-41
2022/05/20 02:16:03;;;;;;;3.88;1.88;;;25.70;47.40;;;;;;5138977;27;20035;-41
2022/05/20 02:18:34;;;;;;;3.05;1.80;;;25.70;47.30;;;;;;5138111;27;20015;-43
2022/05/20 02:21:03;;;;;;;2.58;1.80;;;25.60;47.20;;;;;;5138985;27;20023;-42
2022/05/20 02:23:33;;;;;;;4.55;1.90;;;25.70;47.20;;;;;;5121100;27;20038;-41
2022/05/20 02:26:12;;;;;;;2.20;1.70;;;25.70;47.10;;;;;;5139338;27;20011;-40
2022/05/20 02:28:39;;;;;;;3.03;2.10;;;25.70;47.10;;;;;;5137884;27;20015;-42
2022/05/20 02:31:06;;;;;;;3.50;1.70;;;25.70;47.10;;;;;;5137315;27;20038;-41
2022/05/20 02:33:33;;;;;;;2.70;1.70;;;25.60;47.10;;;;;;5120891;27;20007;-41
2022/05/20 02:36:16;;;;;;;3.67;1.60;;;25.60;47.10;;;;;;5138460;27;20038;-40
2022/05/20 02:38:42;;;;;;;3.05;1.90;;;25.70;47.10;;;;;;5138081;27;20031;-40
2022/05/20 02:41:08;;;;;;;2.78;1.70;;;25.70;47.10;;;;;;5138802;27;20453;-41
2022/05/20 02:43:34;;;;;;;3.42;1.88;;;25.70;47.10;;;;;;5137006;27;20011;-40
2022/05/20 02:45:59;;;;;;;2.63;1.70;;;25.70;47.10;;;;;;5137813;27;20335;-40
2022/05/20 02:48:25;;;;;;;3.15;1.63;;;25.60;47.10;;;;;;5138763;27;20035;-41
2022/05/20 02:50:52;;;;;;;3.53;2.08;;;25.70;47.10;;;;;;5138256;27;20022;-41
2022/05/20 02:53:18;;;;;;;2.90;1.83;;;25.60;47.00;;;;;;5138473;27;20011;-41
2022/05/20 02:55:44;;;;;;;3.03;1.52;;;25.70;47.00;;;;;;5138635;27;20423;-40
2022/05/20 03:04:09;;;;;;;4.55;1.70;;;25.60;47.00;;;;;;5138275;27;20019;-40
2022/05/20 03:06:24;;;;;;;3.10;1.85;;;25.60;47.00;;;;;;5137821;27;20034;-41
2022/05/20 03:08:51;;;;;;;3.22;1.77;;;25.60;47.00;;;;;;5136210;27;20023;-40
2022/05/20 03:11:17;;;;;;;6.25;1.92;;;25.60;47.00;;;;;;5137225;27;20015;-41
2022/05/20 03:13:43;;;;;;;2.85;1.67;;;25.60;47.00;;;;;;5119498;27;20470;-41
2022/05/20 03:16:09;;;;;;;2.95;1.70;;;25.60;47.00;;;;;;5137437;27;20050;-40
2022/05/20 03:18:36;;;;;;;3.50;1.90;;;25.60;47.00;;;;;;5138385;27;20027;-41
2022/05/20 03:21:02;;;;;;;3.13;1.60;;;25.60;47.10;;;;;;5135821;27;20039;-41
2022/05/20 03:23:28;;;;;;;4.95;1.90;;;25.60;47.10;;;;;;5137442;27;20022;-41
2022/05/20 03:25:55;;;;;;;2.80;1.77;;;25.60;47.00;;;;;;5119737;27;20034;-40
2022/05/20 03:28:20;;;;;;;2.35;1.58;;;25.60;47.10;;;;;;5137721;27;20079;-40
2022/05/20 03:30:47;;;;;;;2.55;1.85;;;25.60;47.00;;;;;;5137518;27;20015;-42
2022/05/20 03:33:12;;;;;;;2.85;1.50;;;25.60;47.00;;;;;;5138863;27;20710;-41
2022/05/20 03:35:39;;;;;;;3.55;1.70;;;25.60;47.10;;;;;;5137151;27;20019;-40
2022/05/20 03:38:04;;;;;;;1.85;1.60;;;25.60;47.00;;;;;;5137592;27;20061;-41
2022/05/20 03:40:30;;;;;;;2.35;1.88;;;25.60;47.10;;;;;;5135614;27;20381;-41
2022/05/20 03:42:57;;;;;;;3.03;2.15;;;25.60;47.10;;;;;;5137314;27;20019;-43
2022/05/20 03:45:23;;;;;;;3.67;1.80;;;25.50;47.00;;;;;;5137337;27;20015;-40
2022/05/20 03:47:49;;;;;;;3.40;1.73;;;25.60;47.10;;;;;;5135678;27;20007;-40
2022/05/20 03:50:15;;;;;;;2.75;1.77;;;25.60;47.00;;;;;;5136734;27;20021;-40
2022/05/20 03:52:42;;;;;;;2.83;1.60;;;25.60;47.00;;;;;;5136943;27;20110;-40
2022/05/20 03:55:08;;;;;;;3.30;1.85;;;25.60;47.00;;;;;;5136593;27;20038;-41
2022/05/20 03:57:34;;;;;;;4.53;1.80;;;25.60;47.00;;;;;;5135378;27;20033;-41
2022/05/20 04:00:00;;;;;;;1.98;1.70;;;25.60;47.00;;;;;;5136427;27;20079;-40
2022/05/20 04:02:26;;;;;;;3.55;1.67;;;25.50;47.00;;;;;;5136124;27;20059;-40
2022/05/20 04:04:52;;;;;;;3.17;1.70;;;25.50;47.00;;;;;;5136175;27;20019;-40
2022/05/20 04:07:23;;;;;;;2.42;1.70;;;25.60;47.10;;;;;;5135596;27;20079;-42
2022/05/20 04:09:49;;;;;;;2.90;1.80;;;25.60;47.10;;;;;;5136760;27;20522;-41
2022/05/20 04:12:28;;;;;;;2.53;2.00;;;25.50;47.00;;;;;;5136713;27;20019;-41
2022/05/20 04:14:55;;;;;;;2.65;1.80;;;25.50;47.00;;;;;;5137052;27;20022;-42
2022/05/20 04:17:21;;;;;;;3.67;1.80;;;25.50;47.00;;;;;;5135858;27;21132;-41
2022/05/20 04:19:46;;;;;;;2.13;1.70;;;25.60;47.00;;;;;;5136641;27;20043;-41
2022/05/20 04:22:13;;;;;;;3.08;1.90;;;25.60;47.10;;;;;;5135907;27;20062;-40
2022/05/20 04:24:39;;;;;;;2.50;1.67;;;25.60;47.10;;;;;;5136438;27;20007;-41
2022/05/20 04:27:05;;;;;;;2.85;1.70;;;25.50;47.10;;;;;;5136039;27;20031;-40
2022/05/20 04:29:31;;;;;;;2.05;1.60;;;25.60;47.20;;;;;;5136185;27;20046;-41
2022/05/20 04:31:57;;;;;;;2.97;1.95;;;25.50;47.10;;;;;;5117771;27;20023;-41
2022/05/20 04:34:24;;;;;;;3.20;1.80;;;25.50;47.10;;;;;;5136066;27;20037;-41
2022/05/20 04:36:49;;;;;;;3.25;1.70;;;25.50;47.10;;;;;;5135769;27;20047;-40
2022/05/20 04:39:15;;;;;;;3.47;2.00;;;25.50;47.10;;;;;;5133917;27;20461;-42
2022/05/20 04:47:27;;;;;;;2.83;2.00;;;25.60;47.10;;;;;;5072041;28;20032;-41
2022/05/20 04:49:53;;;;;;;2.53;1.60;;;25.60;47.10;;;;;;5071910;28;20450;-41
2022/05/20 04:52:19;;;;;;;2.33;1.58;;;25.60;47.10;;;;;;5071783;28;20025;-41
2022/05/20 04:54:54;;;;;;;2.33;1.50;;;25.60;47.10;;;;;;5055440;28;20072;-42
2022/05/20 04:57:28;;;;;;;2.45;1.63;;;25.60;47.10;;;;;;5072485;28;20038;-40
2022/05/20 04:59:58;;;;;;;2.75;1.70;;;25.70;47.00;;;;;;5072724;28;20043;-41
2022/05/20 05:02:43;;;;;;;2.45;1.95;;;25.70;46.80;;;;;;5072439;28;20495;-41
2022/05/20 05:05:11;;;;;;;2.95;1.67;;;25.80;46.70;;;;;;5072448;28;20025;-40
2022/05/20 05:07:38;;;;;;;3.55;1.70;;;25.90;46.40;;;;;;5072031;28;20016;-41
2022/05/20 05:10:05;;;;;;;2.20;1.50;;;26.00;46.20;;;;;;5056624;28;20050;-41
2022/05/20 05:12:31;;;;;;;2.95;1.77;;;26.10;46.00;;;;;;5073022;28;20569;-43
2022/05/20 05:14:57;;;;;;;2.40;1.77;;;26.20;45.80;;;;;;5056268;28;20140;-40
2022/05/20 05:20:12;;;;;;;2.88;1.75;;;26.30;45.50;;;;;;5073450;28;20020;-41
2022/05/20 05:22:38;;;;;;;2.53;1.55;;;26.40;45.30;;;;;;5135421;27;20046;-44
2022/05/20 05:25:05;;;;;;;2.67;1.67;;;26.60;45.20;;;;;;5135869;27;20178;-41
2022/05/20 05:27:31;;;;;;;2.53;1.63;;;26.70;45.00;;;;;;5135214;27;20015;-42
2022/05/20 05:29:56;;;;;;;4.55;1.90;;;26.80;44.70;;;;;;5117283;28;20042;-42
2022/05/20 05:32:22;;;;;;;3.60;1.95;;;26.90;44.50;;;;;;5136797;28;20016;-41
2022/05/20 05:34:49;;;;;;;2.50;1.60;;;27.00;44.30;;;;;;5136433;28;20050;-40
2022/05/20 05:37:15;;;;;;;1.80;1.60;;;27.10;44.10;;;;;;5134954;27;20031;-43
2022/05/20 05:39:41;;;;;;;2.45;1.63;;;27.20;44.00;;;;;;5134554;28;20090;-40
2022/05/20 05:42:07;;;;;;;2.25;1.55;;;27.20;43.70;;;;;;5133722;28;20339;-40
2022/05/20 05:44:33;;;;;;;3.47;2.03;;;27.30;43.70;;;;;;5134872;28;20031;-39
2022/05/20 05:47:00;;;;;;;3.78;1.80;;;27.40;43.60;;;;;;5117731;28;20098;-40
2022/05/20 05:49:26;;;;;;;2.00;1.60;;;27.40;43.40;;;;;;5136280;28;20095;-43
2022/05/20 05:51:54;;;;;;;3.65;1.58;;;27.50;43.40;;;;;;5134556;28;20027;-41
2022/05/20 05:54:20;;;;;;;2.28;1.70;;;27.50;43.10;;;;;;5136352;28;20011;-39
2022/05/20 05:56:46;;;;;;;2.42;1.48;;;27.60;43.00;;;;;;5134713;28;20065;-42
2022/05/20 05:59:12;;;;;;;2.78;1.60;;;27.60;42.90;;;;;;5135159;27;20092;-39
2022/05/20 06:01:38;;;;;;;2.40;1.88;;;27.60;43.00;;;;;;5135742;27;20427;-41
2022/05/20 06:04:04;;;;;;;3.63;1.83;;;27.60;42.90;;;;;;5134325;28;20094;-39
2022/05/20 06:06:30;;;;;;;2.45;1.70;;;27.60;43.10;;;;;;5118993;28;20035;-39
2022/05/20 06:08:56;;;;;;;2.42;1.52;;;27.60;42.90;;;;;;5136704;28;20026;-39
2022/05/20 06:11:21;;;;;;;2.42;1.50;;;27.70;42.70;;;;;;5117150;28;20023;-39
2022/05/20 06:13:48;;;;;;;3.08;1.73;;;27.80;42.60;;;;;;5134935;28;20023;-39
2022/05/20 06:16:19;;;;;;;2.05;1.45;;;27.90;42.50;;;;;;5135425;28;20023;-39
2022/05/20 06:18:45;;;;;;;2.63;1.70;;;27.80;42.40;;;;;;5135110;27;20087;-39
2022/05/20 06:21:15;;;;;;;2.78;1.75;;;27.80;42.40;;;;;;5116345;27;20047;-39
2022/05/20 06:23:41;;;;;;;3.80;2.28;;;27.80;42.50;;;;;;5135234;27;20011;-40
2022/05/20 06:26:07;;;;;;;21.67;9.32;;;27.50;43.40;;;;;;5137750;27;19999;-40
2022/05/20 06:28:32;;;;;;;26.30;11.80;;;26.80;44.80;;;;;;5136774;27;20094;-39
2022/05/20 06:30:58;;;;;;;24.42;11.60;;;26.00;46.80;;;;;;5135306;27;20015;-39
2022/05/20 06:33:24;;;;;;;21.48;10.80;;;25.60;48.40;;;;;;5136741;27;20007;-38
2022/05/20 06:41:22;;;;;;;18.40;11.55;;;24.80;49.50;;;;;;5136630;27;20026;-38
2022/05/20 06:43:48;;;;;;;18.80;12.63;;;24.60;50.70;;;;;;5135387;27;20385;-38
2022/05/20 06:46:18;;;;;;;16.60;11.93;;;24.70;50.50;;;;;;5136415;27;20015;-37
2022/05/20 06:48:52;;;;;;;15.10;11.15;;;24.80;49.90;;;;;;5135111;27;20019;-36
2022/05/20 06:51:23;;;;;;;17.25;13.63;;;24.70;49.70;;;;;;5136833;27;20052;-37
2022/05/20 06:53:52;;;;;;;19.80;14.30;;;24.50;50.60;;;;;;5118676;27;20031;-38
2022/05/20 06:56:18;;;;;;;14.88;11.10;;;24.40;51.10;;;;;;5135255;27;20011;-39
2022/05/20 06:58:45;;;;;;;17.70;13.70;;;24.60;50.60;;;;;;5136848;27;20423;-39
2022/05/20 07:01:12;;;;;;;18.42;13.57;;;24.40;51.20;;;;;;5136650;27;20050;-42
2022/05/20 07:03:39;;;;;;;18.35;13.15;;;24.30;51.70;;;;;;5136118;27;20015;-38
2022/05/20 07:06:05;;;;;;;15.85;12.52;;;24.50;51.60;;;;;;5136638;27;20016;-39
2022/05/20 07:08:31;;;;;;;19.17;13.30;;;24.60;51.10;;;;;;5134615;27;20196;-39
2022/05/20 07:10:56;;;;;;;21.38;13.40;;;24.60;50.90;;;;;;5135937;27;20015;-39
2022/05/20 07:13:22;;;;;;;20.92;16.38;;;24.80;50.60;;;;;;5135440;27;20007;-38
2022/05/20 07:15:48;;;;;;;22.88;14.52;;;24.60;50.80;;;;;;5133202;27;20015;-38
2022/05/20 07:18:14;;;;;;;24.95;15.95;;;24.50;52.00;;;;;;5135707;27;20478;-38
2022/05/20 07:20:40;;;;;;;24.77;13.30;;;24.50;51.60;;;;;;5135168;27;20035;-38
2022/05/20 07:23:05;;;;;;;21.88;13.25;;;24.70;51.70;;;;;;5136071;27;20122;-40
2022/05/20 07:25:33;;;;;;;24.80;14.00;;;24.80;51.40;;;;;;5134698;27;20030;-39
2022/05/20 07:27:59;;;;;;;22.58;14.38;;;24.90;50.70;;;;;;5136238;27;20011;-41
2022/05/20 07:30:25;;;;;;;17.90;14.55;;;25.00;51.00;;;;;;5134460;27;20534;-38
2022/05/20 07:32:51;;;;;;;20.67;13.95;;;25.00;50.70;;;;;;5135505;27;20522;-39
2022/05/20 07:35:17;;;;;;;19.08;12.93;;;25.20;50.70;;;;;;5135424;27;20015;-39
2022/05/20 07:37:42;;;;;;;20.33;12.43;;;25.20;50.40;;;;;;5135193;27;20038;-39
2022/05/20 07:40:08;;;;;;;22.08;16.40;;;25.20;50.60;;;;;;5134979;27;20453;-39
2022/05/20 07:42:34;;;;;;;27.13;17.80;;;25.10;51.10;;;;;;5135458;27;20534;-38
2022/05/20 07:45:01;;;;;;;26.15;17.50;;;24.80;51.70;;;;;;5134999;27;20007;-38
2022/05/20 07:47:28;;;;;;;20.67;16.70;;;24.70;52.10;;;;;;5135540;27;20019;-39
2022/05/20 07:49:54;;;;;;;67.72;17.35;;;24.60;52.20;;;;;;5116785;27;20544;-41
2022/05/20 07:55:04;;;;;;;25.95;19.65;;;24.60;52.20;;;;;;5135309;27;20128;-38
2022/05/20 07:57:30;;;;;;;23.00;17.85;;;24.50;52.40;;;;;;5134127;27;20555;-39
2022/05/20 07:59:56;;;;;;;25.50;17.58;;;24.40;52.60;;;;;;5135332;27;20074;-41
2022/05/20 08:02:25;;;;;;;24.10;16.00;;;24.50;52.10;;;;;;5116011;27;20134;-38
2022/05/20 08:04:53;;;;;;;24.10;18.30;;;24.80;51.70;;;;;;5133120;27;20014;-38
2022/05/20 08:07:25;;;;;;;27.48;18.27;;;24.80;51.50;;;;;;5134749;27;20026;-38
2022/05/20 08:09:51;;;;;;;31.02;17.48;;;24.50;52.10;;;;;;5133377;27;20024;-39
2022/05/20 08:12:17;;;;;;;33.97;17.88;;;24.40;52.60;;;;;;5135455;27;20079;-39
2022/05/20 08:14:43;;;;;;;36.35;16.52;;;24.30;53.10;;;;;;5135739;27;20081;-39
2022/05/20 08:17:09;;;;;;;27.73;15.75;;;24.60;52.60;;;;;;5132599;27;20034;-39
2022/05/20 08:19:35;;;;;;;23.00;15.77;;;24.80;51.80;;;;;;5131125;27;20334;-39
2022/05/20 08:22:01;;;;;;;30.60;16.65;;;24.90;51.40;;;;;;5131800;27;20055;-38
2022/05/20 08:24:26;;;;;;;30.00;17.65;;;24.90;51.60;;;;;;5116378;27;20080;-40
2022/05/20 08:26:53;;;;;;;31.52;17.23;;;24.90;52.10;;;;;;5134322;27;20098;-39
2022/05/20 08:29:19;;;;;;;26.60;18.83;;;24.90;52.40;;;;;;5134174;27;20060;-39
2022/05/20 08:31:45;;;;;;;25.33;18.83;;;25.20;51.70;;;;;;5132872;27;20064;-40
2022/05/20 08:34:11;;;;;;;27.58;19.58;;;25.20;51.40;;;;;;5134392;27;20019;-40
2022/05/20 08:36:38;;;;;;;28.15;18.52;;;25.00;51.50;;;;;;5134706;27;20027;-39
2022/05/20 08:39:04;;;;;;;28.00;19.00;;;25.00;51.70;;;;;;5134126;27;20015;-41
2022/05/20 08:41:36;;;;;;;24.00;17.25;;;24.90;51.90;;;;;;5132624;27;20023;-39
2022/05/20 08:44:02;;;;;;;29.15;18.90;;;24.90;52.00;;;;;;5132961;27;20034;-38
2022/05/20 08:46:28;;;;;;;27.77;19.23;;;24.80;51.90;;;;;;5133691;27;20466;-38
2022/05/20 08:48:58;;;;;;;24.05;18.05;;;24.60;52.10;;;;;;5132871;27;20083;-39
2022/05/20 08:51:27;;;;;;;25.73;17.23;;;24.60;52.30;;;;;;5133241;27;20101;-39
2022/05/20 08:53:53;;;;;;;23.05;15.23;;;24.80;52.10;;;;;;5132451;27;20023;-39
2022/05/20 08:56:20;;;;;;;20.95;16.65;;;24.90;51.80;;;;;;5132502;27;20011;-39
2022/05/20 08:59:01;;;;;;;20.95;15.80;;;24.70;52.40;;;;;;5132752;27;20090;-39
2022/05/20 09:01:40;;;;;;;23.17;16.38;;;24.80;52.20;;;;;;5132188;27;20008;-38
2022/05/20 09:04:10;;;;;;;23.30;16.58;;;24.80;52.10;;;;;;5131923;27;20018;-39
2022/05/20 09:06:58;;;;;;;25.25;16.13;;;24.70;52.30;;;;;;5131774;27;20223;-39
2022/05/20 09:09:27;;;;;;;23.40;16.65;;;24.80;52.20;;;;;;5132563;27;20087;-40
2022/05/20 09:11:56;;;;;;;22.17;17.45;;;24.80;52.10;;;;;;5133078;27;20014;-38
2022/05/20 09:17:10;;;;;;;24.88;17.58;;;24.40;53.10;;;;;;5134396;27;20057;-37
2022/05/20 09:19:36;;;;;;;27.40;18.10;;;24.40;54.00;;;;;;5133266;27;20075;-37
2022/05/20 09:22:14;;;;;;;23.58;17.40;;;24.30;53.80;;;;;;5133253;27;20548;-39
2022/05/20 09:24:44;;;;;;;23.90;16.27;;;24.30;54.40;;;;;;5131791;27;20015;-37
2022/05/20 09:27:17;;;;;;;24.83;19.30;;;24.40;54.00;;;;;;5133496;27;20024;-36
2022/05/20 09:29:52;;;;;;;21.83;17.48;;;24.40;53.60;;;;;;5133119;27;20102;-37
2022/05/20 09:32:43;;;;;;;22.42;18.15;;;24.40;54.00;;;;;;5132704;27;20031;-37
2022/05/20 09:35:18;;;;;;;30.73;21.17;;;24.40;54.40;;;;;;5132676;27;20019;-37
2022/05/20 09:37:49;;;;;;;27.88;19.83;;;24.20;54.60;;;;;;5133026;27;20023;-38
2022/05/20 09:40:34;;;;;;;30.48;19.42;;;24.30;54.70;;;;;;5132987;27;20047;-37
2022/05/20 09:43:00;;;;;;;32.38;19.75;;;24.20;55.30;;;;;;5133001;27;20012;-37
2022/05/20 09:45:26;;;;;;;28.30;20.00;;;24.40;54.80;;;;;;5132764;27;20026;-37
2022/05/20 09:47:54;;;;;;;28.50;19.50;;;24.60;54.30;;;;;;5131527;28;20449;-38
2022/05/20 09:50:33;;;;;;;27.00;19.63;;;24.40;54.70;;;;;;5131794;28;20019;-40
2022/05/20 09:53:22;;;;;;;28.95;20.98;;;24.40;55.10;;;;;;5133470;27;20012;-39
2022/05/20 09:55:48;;;;;;;29.15;17.95;;;24.50;54.70;;;;;;5137708;27;20023;-41
2022/05/20 09:58:18;;;;;;;29.35;19.40;;;24.50;54.80;;;;;;5137715;27;20030;-37
2022/05/20 10:01:10;;;;;;;27.88;17.75;;;24.60;54.70;;;;;;5136719;27;20023;-40
2022/05/20 10:04:03;;;;;;;22.25;15.25;;;24.50;54.80;;;;;;5133864;27;20047;-38
2022/05/20 10:06:48;;;;;;;25.35;13.73;;;24.80;54.20;;;;;;5135641;27;20072;-40
2022/05/20 10:09:40;;;;;;;24.50;12.18;;;25.00;53.60;;;;;;5120627;27;20250;-39
2022/05/20 10:12:25;;;;;;;15.38;9.95;;;25.10;53.00;;;;;;5120816;27;20015;-41
2022/05/20 10:15:14;;;;;;;17.30;8.55;;;25.30;52.60;;;;;;5136913;27;20011;-38
2022/05/20 10:18:01;;;;;;;10.27;6.20;;;25.40;52.40;;;;;;5122713;27;20059;-40
2022/05/20 10:20:32;;;;;;;13.93;8.25;;;25.50;52.10;;;;;;5137195;27;20021;-40
2022/05/20 10:23:14;;;;;;;13.05;7.70;;;25.50;52.00;;;;;;5136813;27;20030;-38
2022/05/20 10:25:46;;;;;;;11.90;8.55;;;25.60;51.90;;;;;;5137089;27;20038;-38
2022/05/20 10:34:05;;;;;;;11.77;7.00;;;25.60;51.50;;;;;;5137865;27;20520;-42
2022/05/20 10:36:45;;;;;;;10.70;6.60;;;25.60;51.40;;;;;;5137219;27;20015;-39
2022/05/20 10:39:16;;;;;;;7.55;5.97;;;25.70;51.50;;;;;;5137504;27;20457;-40
2022/05/20 10:42:12;;;;;;;8.25;5.20;;;25.70;51.40;;;;;;5137771;27;20031;-40
2022/05/20 10:51:04;;;;;;;19.50;10.95;;;25.70;51.20;;;;;;5135945;27;20026;-42
2022/05/20 10:53:50;;;;;;;18.92;13.48;;;25.40;53.10;;;;;;5135824;27;20474;-39
2022/05/20 10:56:54;;;;;;;28.25;19.92;;;24.90;55.40;;;;;;5135517;27;20061;-38
2022/05/20 10:59:29;;;;;;;29.98;19.08;;;24.40;58.10;;;;;;5136391;27;20123;-38
2022/05/20 11:02:29;;;;;;;23.42;17.98;;;24.40;59.80;;;;;;5136393;27;20012;-38
2022/05/20 11:05:22;;;;;;;29.95;18.33;;;24.70;59.60;;;;;;5135843;27;20106;-39
2022/05/20 11:07:54;;;;;;;24.40;17.00;;;25.00;59.60;;;;;;5136487;27;20015;-38
2022/05/20 11:10:30;;;;;;;21.38;16.10;;;25.20;59.20;;;;;;5135626;27;20020;-41
2022/05/20 11:13:13;;;;;;;23.85;17.52;;;25.40;59.30;;;;;;5135897;27;20019;-38
2022/05/20 11:15:55;;;;;;;22.60;16.30;;;25.60;59.70;;;;;;5135795;27;20020;-39
2022/05/20 11:18:46;;;;;;;23.90;16.58;;;25.70;59.80;;;;;;5135576;27;20015;-38
2022/05/20 11:21:18;;;;;;;23.75;16.60;;;25.80;60.00;;;;;;5133735;27;20046;-39
2022/05/20 11:23:52;;;;;;;23.92;15.38;;;26.00;60.30;;;;;;5135048;27;20022;-40
2022/05/20 11:26:55;;;;;;;22.70;15.90;;;26.00;60.00;;;;;;5133804;27;20023;-38
2022/05/20 11:29:59;;;;;;;23.13;18.08;;;25.90;59.70;;;;;;5135870;27;20015;-38
2022/05/20 11:32:50;;;;;;;31.23;20.30;;;25.70;60.70;;;;;;5131583;27;20046;-38
2022/05/20 11:36:06;;;;;;;28.90;19.30;;;25.60;61.20;;;;;;5135059;27;20665;-38
2022/05/20 11:38:41;;;;;;;31.40;20.67;;;25.60;61.70;;;;;;5032440;28;20037;-40
2022/05/20 11:41:25;;;;;;;31.52;20.73;;;25.60;61.50;;;;;;5031195;28;20013;-38
2022/05/20 11:44:06;;;;;;;40.97;20.58;;;25.30;61.40;;;;;;5031688;28;20025;-40
2022/05/20 11:46:55;;;;;;;46.13;22.15;;;25.20;62.40;;;;;;5031961;28;20095;-39
2022/05/20 11:49:26;;;;;;;34.25;20.05;;;25.50;62.90;;;;;;5031088;28;20124;-39
2022/05/20 11:52:06;;;;;;;30.30;18.02;;;25.40;61.20;;;;;;5031042;28;20017;-39
2022/05/20 11:54:39;;;;;;;31.92;18.70;;;25.50;62.00;;;;;;5015116;28;20037;-39
2022/05/20 11:57:07;;;;;;;36.72;18.48;;;25.50;61.00;;;;;;5031568;28;20128;-39
2022/05/20 11:59:48;;;;;;;28.90;17.73;;;25.60;61.30;;;;;;4998864;28;20057;-39
2022/05/20 12:02:17;;;;;;;27.25;18.02;;;25.70;61.10;;;;;;5032766;28;20026;-39
2022/05/20 12:04:46;;;;;;;30.15;18.42;;;25.80;61.20;;;;;;5032638;28;20068;-38
2022/05/20 12:07:16;;;;;;;27.70;18.60;;;25.90;61.30;;;;;;5031810;28;20097;-39
2022/05/20 12:09:53;;;;;;;30.10;17.20;;;26.00;61.10;;;;;;5084254;27;20024;-38
2022/05/20 12:12:28;;;;;;;29.92;20.48;;;25.90;60.50;;;;;;5135452;27;20020;-38
2022/05/20 12:14:57;;;;;;;28.20;18.02;;;25.80;60.90;;;;;;5135105;27;20012;-38
2022/05/20 12:17:34;;;;;;;24.42;17.73;;;25.80;61.00;;;;;;5134138;27;20050;-38
2022/05/20 12:26:20;;;;;;;25.20;19.20;;;25.70;62.00;;;;;;5134391;27;20029;-38
2022/05/20 12:28:46;;;;;;;26.65;18.55;;;25.50;62.80;;;;;;5133499;27;20038;-38
2022/05/20 12:31:34;;;;;;;23.08;16.85;;;25.40;63.30;;;;;;5133024;27;20015;-39
2022/05/20 12:34:03;;;;;;;25.00;15.70;;;25.50;62.90;;;;;;5134732;27;20011;-39
2022/05/20 12:36:28;;;;;;;20.53;14.47;;;25.60;62.50;;;;;;5135130;27;20019;-40
2022/05/20 12:39:06;;;;;;;20.13;13.32;;;25.70;62.10;;;;;;5133962;27;20007;-47
2022/05/20 12:41:43;;;;;;;17.63;12.95;;;25.80;61.80;;;;;;5133791;27;20015;-39
2022/05/20 12:44:15;;;;;;;20.45;13.10;;;25.80;61.70;;;;;;5133789;27;20003;-40
2022/05/20 12:46:58;;;;;;;14.68;11.32;;;25.80;61.50;;;;;;5134940;27;20050;-39
2022/05/20 12:49:25;;;;;;;17.80;11.50;;;25.90;61.60;;;;;;5134221;27;20648;-39
2022/05/20 12:51:51;;;;;;;17.67;10.50;;;25.80;61.10;;;;;;5115898;27;20015;-39
2022/05/20 12:54:25;;;;;;;17.58;10.68;;;25.80;61.10;;;;;;5132494;27;20016;-38
2022/05/20 12:56:58;;;;;;;16.85;10.38;;;25.80;61.10;;;;;;5132235;27;20023;-39
2022/05/20 12:59:24;;;;;;;20.23;10.52;;;25.80;61.30;;;;;;5132144;27;20011;-39
2022/05/20 13:01:58;;;;;;;16.13;9.25;;;25.80;61.20;;;;;;5115275;27;20023;-39
2022/05/20 13:04:27;;;;;;;14.02;9.20;;;25.80;61.10;;;;;;5115405;27;20068;-39
2022/05/20 13:06:53;;;;;;;15.90;9.13;;;25.80;61.10;;;;;;5133287;27;20335;-38
2022/05/20 13:09:27;;;;;;;17.92;9.32;;;25.80;61.20;;;;;;5132450;27;20015;-39
2022/05/20 13:11:54;;;;;;;15.88;8.93;;;25.80;61.20;;;;;;5132137;27;20075;-39
2022/05/20 13:14:22;;;;;;;12.20;8.13;;;25.80;61.20;;;;;;5098392;27;20015;-39
2022/05/20 13:16:49;;;;;;;14.18;9.35;;;25.80;61.30;;;;;;5133657;27;20034;-39
2022/05/20 13:19:16;;;;;;;14.18;7.55;;;25.80;61.20;;;;;;5133465;27;20018;-38
2022/05/20 13:21:51;;;;;;;10.10;7.40;;;25.80;61.30;;;;;;5134241;27;20050;-40
2022/05/20 13:24:20;;;;;;;11.00;7.40;;;25.70;61.20;;;;;;5133213;27;20013;-38
2022/05/20 13:26:45;;;;;;;12.37;7.10;;;25.80;61.80;;;;;;5133814;27;20015;-39
2022/05/20 13:29:23;;;;;;;10.40;7.22;;;25.70;61.10;;;;;;5136125;27;20319;-41
2022/05/20 13:31:50;;;;;;;11.65;6.20;;;25.70;60.90;;;;;;5134181;27;20019;-39
2022/05/20 13:34:16;;;;;;;13.10;7.13;;;25.70;60.60;;;;;;5136184;27;20023;-39
2022/05/20 13:36:44;;;;;;;12.00;7.07;;;25.70;60.70;;;;;;5135229;28;20031;-40
2022/05/20 13:39:32;;;;;;;17.33;7.10;;;25.70;60.80;;;;;;5134389;28;20018;-40
2022/05/20 13:41:58;;;;;;;10.52;7.22;;;25.70;60.80;;;;;;5134440;28;20031;-39